sensor_id;sensor_type;location;lat;lon;timestamp;pressure;altitude;pressure_sealevel;temperature;humidity
23241;BME280;11789;53.482;9.862;2023-02-04T00:01:40;102871.53;;;3.00;97.39
23241;BME280;11789;53.482;9.862;2023-02-04T00:04:05;102872.28;;;2.99;97.48
23241;BME280;11789;53.482;9.862;2023-02-04T00:06:30;102879.78;;;2.96;97.21
23241;BME280;11789;53.482;9.862;2023-02-04T00:08:56;102884.81;;;2.94;97.07
23241;BME280;11789;53.482;9.862;2023-02-04T00:11:21;102885.47;;;2.92;97.15
23241;BME280;11789;53.482;9.862;2023-02-04T00:13:47;102884.37;;;2.88;96.66
23241;BME280;11789;53.482;9.862;2023-02-04T00:16:12;102897.47;;;2.93;96.47
23241;BME280;11789;53.482;9.862;2023-02-04T00:18:38;102889.62;;;2.90;96.53
23241;BME280;11789;53.482;9.862;2023-02-04T00:21:03;102901.59;;;2.91;96.22
23241;BME280;11789;53.482;9.862;2023-02-04T00:23:29;102906.12;;;2.81;96.26
23241;BME280;11789;53.482;9.862;2023-02-04T00:25:54;102924.59;;;2.77;96.49
23241;BME280;11789;53.482;9.862;2023-02-04T00:28:20;102929.59;;;2.76;96.55
23241;BME280;11789;53.482;9.862;2023-02-04T00:30:45;102946.31;;;2.71;96.55
23241;BME280;11789;53.482;9.862;2023-02-04T00:33:12;102946.22;;;2.69;96.90
23241;BME280;11789;53.482;9.862;2023-02-04T00:35:37;102951.41;;;2.71;96.98
23241;BME280;11789;53.482;9.862;2023-02-04T00:38:04;102952.19;;;2.70;96.85
23241;BME280;11789;53.482;9.862;2023-02-04T00:40:29;102965.06;;;2.71;96.74
23241;BME280;11789;53.482;9.862;2023-02-04T00:42:55;102965.84;;;2.70;96.73
23241;BME280;11789;53.482;9.862;2023-02-04T00:45:20;102966.72;;;2.71;96.67
23241;BME280;11789;53.482;9.862;2023-02-04T00:47:45;102974.41;;;2.71;96.98
23241;BME280;11789;53.482;9.862;2023-02-04T00:50:11;102980.47;;;2.73;97.61
23241;BME280;11789;53.482;9.862;2023-02-04T00:52:36;102982.94;;;2.71;97.84
23241;BME280;11789;53.482;9.862;2023-02-04T00:55:02;102982.94;;;2.71;97.60
23241;BME280;11789;53.482;9.862;2023-02-04T00:57:28;102992.06;;;2.68;97.48
23241;BME280;11789;53.482;9.862;2023-02-04T00:59:53;102998.84;;;2.67;97.09
23241;BME280;11789;53.482;9.862;2023-02-04T01:02:18;103002.09;;;2.65;97.25
23241;BME280;11789;53.482;9.862;2023-02-04T01:04:44;103003.63;;;2.63;97.42
23241;BME280;11789;53.482;9.862;2023-02-04T01:07:09;103018.09;;;2.62;97.72
23241;BME280;11789;53.482;9.862;2023-02-04T01:09:35;103025.06;;;2.65;97.76
23241;BME280;11789;53.482;9.862;2023-02-04T01:12:00;103035.16;;;2.63;97.88
23241;BME280;11789;53.482;9.862;2023-02-04T01:14:26;103039.50;;;2.64;97.89
23241;BME280;11789;53.482;9.862;2023-02-04T01:16:51;103052.38;;;2.66;97.51
23241;BME280;11789;53.482;9.862;2023-02-04T01:19:17;103062.59;;;2.66;97.86
23241;BME280;11789;53.482;9.862;2023-02-04T01:21:42;103072.59;;;2.63;98.07
23241;BME280;11789;53.482;9.862;2023-02-04T01:24:08;103068.53;;;2.53;98.26
23241;BME280;11789;53.482;9.862;2023-02-04T01:26:33;103087.56;;;2.45;98.89
23241;BME280;11789;53.482;9.862;2023-02-04T01:28:58;103086.38;;;2.40;99.16
23241;BME280;11789;53.482;9.862;2023-02-04T01:31:24;103097.25;;;2.37;99.54
23241;BME280;11789;53.482;9.862;2023-02-04T01:33:49;103099.12;;;2.40;100.00
23241;BME280;11789;53.482;9.862;2023-02-04T01:36:16;103103.44;;;2.41;100.00
23241;BME280;11789;53.482;9.862;2023-02-04T01:38:46;103100.59;;;2.36;100.00
23241;BME280;11789;53.482;9.862;2023-02-04T01:41:13;103106.94;;;2.29;100.00
23241;BME280;11789;53.482;9.862;2023-02-04T01:43:39;103101.53;;;2.25;100.00
23241;BME280;11789;53.482;9.862;2023-02-04T01:46:04;103109.69;;;2.32;100.00
23241;BME280;11789;53.482;9.862;2023-02-04T01:48:30;103109.69;;;2.32;100.00
23241;BME280;11789;53.482;9.862;2023-02-04T01:51:04;103117.06;;;2.16;100.00
23241;BME280;11789;53.482;9.862;2023-02-04T01:53:31;103115.31;;;2.15;100.00
23241;BME280;11789;53.482;9.862;2023-02-04T01:55:58;103130.97;;;2.08;100.00
23241;BME280;11789;53.482;9.862;2023-02-04T01:58:23;103128.75;;;2.01;100.00
23241;BME280;11789;53.482;9.862;2023-02-04T02:00:49;103134.66;;;2.00;100.00
23241;BME280;11789;53.482;9.862;2023-02-04T02:03:15;103144.53;;;1.95;100.00
23241;BME280;11789;53.482;9.862;2023-02-04T02:05:47;103144.63;;;1.97;100.00
23241;BME280;11789;53.482;9.862;2023-02-04T02:08:13;103146.41;;;1.98;100.00
23241;BME280;11789;53.482;9.862;2023-02-04T02:10:43;103153.06;;;1.96;100.00
23241;BME280;11789;53.482;9.862;2023-02-04T02:13:12;103153.28;;;1.99;100.00
23241;BME280;11789;53.482;9.862;2023-02-04T02:15:38;103160.69;;;2.07;100.00
23241;BME280;11789;53.482;9.862;2023-02-04T02:18:03;103168.91;;;2.15;100.00
23241;BME280;11789;53.482;9.862;2023-02-04T02:20:29;103166.13;;;2.24;100.00
23241;BME280;11789;53.482;9.862;2023-02-04T02:23:16;103167.31;;;2.29;100.00
23241;BME280;11789;53.482;9.862;2023-02-04T02:25:45;103170.94;;;2.32;100.00
23241;BME280;11789;53.482;9.862;2023-02-04T02:28:16;103174.59;;;2.36;100.00
23241;BME280;11789;53.482;9.862;2023-02-04T02:30:42;103182.25;;;2.36;100.00
23241;BME280;11789;53.482;9.862;2023-02-04T02:33:11;103188.16;;;2.35;100.00
23241;BME280;11789;53.482;9.862;2023-02-04T02:35:39;103198.69;;;2.40;100.00
23241;BME280;11789;53.482;9.862;2023-02-04T02:38:08;103199.66;;;2.42;100.00
23241;BME280;11789;53.482;9.862;2023-02-04T02:40:34;103215.88;;;2.42;100.00
23241;BME280;11789;53.482;9.862;2023-02-04T02:42:59;103221.88;;;2.43;100.00
23241;BME280;11789;53.482;9.862;2023-02-04T02:45:27;103222.00;;;2.44;100.00
23241;BME280;11789;53.482;9.862;2023-02-04T02:47:56;103230.31;;;2.42;100.00
23241;BME280;11789;53.482;9.862;2023-02-04T02:50:25;103232.97;;;2.43;100.00
23241;BME280;11789;53.482;9.862;2023-02-04T02:52:52;103237.97;;;2.42;100.00
23241;BME280;11789;53.482;9.862;2023-02-04T02:55:20;103240.75;;;2.45;100.00
23241;BME280;11789;53.482;9.862;2023-02-04T02:57:48;103241.41;;;2.42;100.00
23241;BME280;11789;53.482;9.862;2023-02-04T03:00:21;103250.28;;;2.47;100.00
23241;BME280;11789;53.482;9.862;2023-02-04T03:03:08;103256.16;;;2.46;100.00
23241;BME280;11789;53.482;9.862;2023-02-04T03:05:40;103261.28;;;2.46;100.00
23241;BME280;11789;53.482;9.862;2023-02-04T03:08:07;103262.94;;;2.46;100.00
23241;BME280;11789;53.482;9.862;2023-02-04T03:10:35;103262.25;;;2.48;100.00
23241;BME280;11789;53.482;9.862;2023-02-04T03:13:01;103265.91;;;2.52;100.00
23241;BME280;11789;53.482;9.862;2023-02-04T03:15:27;103280.44;;;2.53;100.00
23241;BME280;11789;53.482;9.862;2023-02-04T03:17:52;103290.47;;;2.50;100.00
23241;BME280;11789;53.482;9.862;2023-02-04T03:20:23;103293.12;;;2.51;100.00
23241;BME280;11789;53.482;9.862;2023-02-04T03:22:50;103288.13;;;2.53;100.00
23241;BME280;11789;53.482;9.862;2023-02-04T03:25:16;103289.69;;;2.51;100.00
23241;BME280;11789;53.482;9.862;2023-02-04T03:27:41;103290.91;;;2.56;100.00
23241;BME280;11789;53.482;9.862;2023-02-04T03:30:07;103302.88;;;2.57;100.00
23241;BME280;11789;53.482;9.862;2023-02-04T03:32:33;103307.44;;;2.61;100.00
23241;BME280;11789;53.482;9.862;2023-02-04T03:34:59;103314.31;;;2.62;100.00
23241;BME280;11789;53.482;9.862;2023-02-04T03:37:24;103321.19;;;2.63;100.00
23241;BME280;11789;53.482;9.862;2023-02-04T03:39:50;103331.75;;;2.56;100.00
23241;BME280;11789;53.482;9.862;2023-02-04T03:42:15;103345.84;;;2.51;100.00
23241;BME280;11789;53.482;9.862;2023-02-04T03:44:42;103344.09;;;2.50;100.00
23241;BME280;11789;53.482;9.862;2023-02-04T03:47:07;103345.00;;;2.39;100.00
23241;BME280;11789;53.482;9.862;2023-02-04T03:49:33;103352.97;;;2.31;100.00
23241;BME280;11789;53.482;9.862;2023-02-04T03:52:00;103365.72;;;2.31;100.00
23241;BME280;11789;53.482;9.862;2023-02-04T03:54:25;103369.16;;;2.20;100.00
23241;BME280;11789;53.482;9.862;2023-02-04T03:56:50;103369.03;;;2.07;100.00
23241;BME280;11789;53.482;9.862;2023-02-04T03:59:16;103375.09;;;1.97;100.00
23241;BME280;11789;53.482;9.862;2023-02-04T04:01:41;103374.53;;;1.90;100.00
23241;BME280;11789;53.482;9.862;2023-02-04T04:04:07;103381.50;;;1.80;100.00
23241;BME280;11789;53.482;9.862;2023-02-04T04:06:32;103387.91;;;1.75;100.00
23241;BME280;11789;53.482;9.862;2023-02-04T04:08:57;103391.50;;;1.77;100.00
23241;BME280;11789;53.482;9.862;2023-02-04T04:11:23;103397.47;;;1.78;100.00
23241;BME280;11789;53.482;9.862;2023-02-04T04:13:48;103399.69;;;1.73;100.00
23241;BME280;11789;53.482;9.862;2023-02-04T04:16:14;103405.06;;;1.66;100.00
23241;BME280;11789;53.482;9.862;2023-02-04T04:18:39;103405.59;;;1.62;100.00
23241;BME280;11789;53.482;9.862;2023-02-04T04:21:05;103409.94;;;1.63;100.00
23241;BME280;11789;53.482;9.862;2023-02-04T04:23:30;103412.06;;;1.69;100.00
23241;BME280;11789;53.482;9.862;2023-02-04T04:25:56;103419.59;;;1.67;100.00
23241;BME280;11789;53.482;9.862;2023-02-04T04:28:21;103426.13;;;1.64;100.00
23241;BME280;11789;53.482;9.862;2023-02-04T04:30:47;103432.66;;;1.60;100.00
23241;BME280;11789;53.482;9.862;2023-02-04T04:33:12;103440.72;;;1.54;100.00
23241;BME280;11789;53.482;9.862;2023-02-04T04:35:38;103437.50;;;1.57;100.00
23241;BME280;11789;53.482;9.862;2023-02-04T04:38:03;103440.53;;;1.63;100.00
23241;BME280;11789;53.482;9.862;2023-02-04T04:40:29;103442.00;;;1.71;100.00
23241;BME280;11789;53.482;9.862;2023-02-04T04:42:54;103443.78;;;1.72;100.00
23241;BME280;11789;53.482;9.862;2023-02-04T04:45:20;103439.00;;;1.65;100.00
23241;BME280;11789;53.482;9.862;2023-02-04T04:47:46;103444.63;;;1.61;100.00
23241;BME280;11789;53.482;9.862;2023-02-04T04:50:11;103453.03;;;1.60;100.00
23241;BME280;11789;53.482;9.862;2023-02-04T04:52:37;103449.84;;;1.63;100.00
23241;BME280;11789;53.482;9.862;2023-02-04T04:55:03;103460.00;;;1.73;100.00
23241;BME280;11789;53.482;9.862;2023-02-04T04:57:30;103459.16;;;1.84;100.00
23241;BME280;11789;53.482;9.862;2023-02-04T04:59:55;103461.34;;;1.79;100.00
23241;BME280;11789;53.482;9.862;2023-02-04T05:02:21;103461.59;;;1.83;100.00
23241;BME280;11789;53.482;9.862;2023-02-04T05:04:46;103469.81;;;1.90;100.00
23241;BME280;11789;53.482;9.862;2023-02-04T05:07:12;103470.28;;;1.96;100.00
23241;BME280;11789;53.482;9.862;2023-02-04T05:09:37;103481.06;;;2.04;100.00
23241;BME280;11789;53.482;9.862;2023-02-04T05:12:03;103487.41;;;2.09;100.00
23241;BME280;11789;53.482;9.862;2023-02-04T05:14:28;103498.72;;;2.13;100.00
23241;BME280;11789;53.482;9.862;2023-02-04T05:16:54;103493.63;;;2.13;100.00
23241;BME280;11789;53.482;9.862;2023-02-04T05:19:19;103497.19;;;2.15;100.00
23241;BME280;11789;53.482;9.862;2023-02-04T05:21:45;103509.94;;;2.15;100.00
23241;BME280;11789;53.482;9.862;2023-02-04T05:24:10;103515.16;;;2.16;100.00
23241;BME280;11789;53.482;9.862;2023-02-04T05:26:35;103513.28;;;2.14;100.00
23241;BME280;11789;53.482;9.862;2023-02-04T05:29:01;103527.34;;;2.08;100.00
23241;BME280;11789;53.482;9.862;2023-02-04T05:31:27;103528.25;;;2.09;100.00
23241;BME280;11789;53.482;9.862;2023-02-04T05:33:52;103529.66;;;2.05;100.00
23241;BME280;11789;53.482;9.862;2023-02-04T05:36:19;103528.06;;;1.96;100.00
23241;BME280;11789;53.482;9.862;2023-02-04T05:38:44;103527.28;;;1.97;100.00
23241;BME280;11789;53.482;9.862;2023-02-04T05:41:09;103538.50;;;1.99;100.00
23241;BME280;11789;53.482;9.862;2023-02-04T05:43:35;103537.12;;;1.92;100.00
23241;BME280;11789;53.482;9.862;2023-02-04T05:46:01;103547.34;;;1.70;100.00
23241;BME280;11789;53.482;9.862;2023-02-04T05:48:26;103554.09;;;1.70;100.00
23241;BME280;11789;53.482;9.862;2023-02-04T05:50:52;103553.47;;;1.62;100.00
23241;BME280;11789;53.482;9.862;2023-02-04T05:53:17;103552.84;;;1.65;100.00
23241;BME280;11789;53.482;9.862;2023-02-04T05:55:43;103563.47;;;1.59;100.00
23241;BME280;11789;53.482;9.862;2023-02-04T05:58:08;103571.87;;;1.58;100.00
23241;BME280;11789;53.482;9.862;2023-02-04T06:00:34;103558.75;;;1.53;100.00
23241;BME280;11789;53.482;9.862;2023-02-04T06:02:59;103568.63;;;1.39;100.00
23241;BME280;11789;53.482;9.862;2023-02-04T06:05:25;103575.03;;;1.34;100.00
23241;BME280;11789;53.482;9.862;2023-02-04T06:07:50;103587.38;;;1.29;100.00
23241;BME280;11789;53.482;9.862;2023-02-04T06:10:16;103591.72;;;1.20;100.00
23241;BME280;11789;53.482;9.862;2023-02-04T06:12:41;103585.75;;;1.19;100.00
23241;BME280;11789;53.482;9.862;2023-02-04T06:15:07;103586.44;;;1.07;100.00
23241;BME280;11789;53.482;9.862;2023-02-04T06:17:33;103589.09;;;0.98;100.00
23241;BME280;11789;53.482;9.862;2023-02-04T06:19:58;103595.38;;;0.91;100.00
23241;BME280;11789;53.482;9.862;2023-02-04T06:22:23;103597.53;;;0.87;100.00
23241;BME280;11789;53.482;9.862;2023-02-04T06:24:50;103607.56;;;0.95;100.00
23241;BME280;11789;53.482;9.862;2023-02-04T06:27:15;103609.47;;;0.98;100.00
23241;BME280;11789;53.482;9.862;2023-02-04T06:29:48;103620.31;;;0.85;100.00
23241;BME280;11789;53.482;9.862;2023-02-04T06:32:15;103626.66;;;0.80;100.00
23241;BME280;11789;53.482;9.862;2023-02-04T06:34:40;103628.81;;;0.75;100.00
23241;BME280;11789;53.482;9.862;2023-02-04T06:37:06;103626.81;;;0.61;100.00
23241;BME280;11789;53.482;9.862;2023-02-04T06:39:31;103627.81;;;0.53;100.00
23241;BME280;11789;53.482;9.862;2023-02-04T06:41:57;103625.25;;;0.43;100.00
23241;BME280;11789;53.482;9.862;2023-02-04T06:44:22;103638.06;;;0.34;100.00
23241;BME280;11789;53.482;9.862;2023-02-04T06:46:48;103650.69;;;0.33;100.00
23241;BME280;11789;53.482;9.862;2023-02-04T06:49:13;103647.38;;;0.34;100.00
23241;BME280;11789;53.482;9.862;2023-02-04T06:51:38;103651.97;;;0.38;100.00
23241;BME280;11789;53.482;9.862;2023-02-04T06:54:04;103651.69;;;0.35;100.00
23241;BME280;11789;53.482;9.862;2023-02-04T06:56:29;103658.31;;;0.33;100.00
23241;BME280;11789;53.482;9.862;2023-02-04T06:58:55;103668.47;;;0.33;100.00
23241;BME280;11789;53.482;9.862;2023-02-04T07:01:20;103674.94;;;0.29;100.00
23241;BME280;11789;53.482;9.862;2023-02-04T07:03:45;103678.25;;;0.28;100.00
23241;BME280;11789;53.482;9.862;2023-02-04T07:06:11;103681.69;;;0.29;100.00
23241;BME280;11789;53.482;9.862;2023-02-04T07:08:36;103681.47;;;0.36;100.00
23241;BME280;11789;53.482;9.862;2023-02-04T07:11:02;103692.19;;;0.42;100.00
23241;BME280;11789;53.482;9.862;2023-02-04T07:13:27;103686.91;;;0.30;100.00
23241;BME280;11789;53.482;9.862;2023-02-04T07:15:53;103694.53;;;0.30;100.00
23241;BME280;11789;53.482;9.862;2023-02-04T07:18:18;103700.69;;;0.32;100.00
23241;BME280;11789;53.482;9.862;2023-02-04T07:20:44;103705.66;;;0.31;100.00
23241;BME280;11789;53.482;9.862;2023-02-04T07:23:10;103717.31;;;0.29;100.00
23241;BME280;11789;53.482;9.862;2023-02-04T07:25:35;103713.00;;;0.28;100.00
23241;BME280;11789;53.482;9.862;2023-02-04T07:28:00;103722.94;;;0.35;100.00
23241;BME280;11789;53.482;9.862;2023-02-04T07:30:28;103729.69;;;0.34;100.00
23241;BME280;11789;53.482;9.862;2023-02-04T07:32:53;103720.91;;;0.31;100.00
23241;BME280;11789;53.482;9.862;2023-02-04T07:35:19;103715.81;;;0.31;100.00
23241;BME280;11789;53.482;9.862;2023-02-04T07:37:44;103723.44;;;0.31;100.00
23241;BME280;11789;53.482;9.862;2023-02-04T07:40:11;103725.22;;;0.32;100.00
23241;BME280;11789;53.482;9.862;2023-02-04T07:42:39;103728.53;;;0.31;100.00
23241;BME280;11789;53.482;9.862;2023-02-04T07:45:05;103731.34;;;0.34;100.00
23241;BME280;11789;53.482;9.862;2023-02-04T07:47:31;103734.41;;;0.40;100.00
23241;BME280;11789;53.482;9.862;2023-02-04T07:49:56;103735.69;;;0.45;100.00
23241;BME280;11789;53.482;9.862;2023-02-04T07:52:23;103739.44;;;0.59;100.00
23241;BME280;11789;53.482;9.862;2023-02-04T07:54:48;103751.09;;;0.96;100.00
23241;BME280;11789;53.482;9.862;2023-02-04T07:57:14;103761.03;;;1.74;100.00
23241;BME280;11789;53.482;9.862;2023-02-04T07:59:39;103747.94;;;3.22;100.00
23241;BME280;11789;53.482;9.862;2023-02-04T08:02:05;103756.94;;;3.74;96.31
23241;BME280;11789;53.482;9.862;2023-02-04T08:04:31;103744.38;;;3.77;93.28
23241;BME280;11789;53.482;9.862;2023-02-04T08:06:56;103749.25;;;4.69;90.23
23241;BME280;11789;53.482;9.862;2023-02-04T08:09:22;103733.78;;;6.35;82.36
23241;BME280;11789;53.482;9.862;2023-02-04T08:11:48;103740.06;;;7.69;74.44
23241;BME280;11789;53.482;9.862;2023-02-04T08:14:13;103744.19;;;6.65;74.42
23241;BME280;11789;53.482;9.862;2023-02-04T08:16:39;103747.38;;;5.16;78.07
23241;BME280;11789;53.482;9.862;2023-02-04T08:19:04;103750.16;;;4.21;82.29
23241;BME280;11789;53.482;9.862;2023-02-04T08:21:30;103757.91;;;4.34;84.78
23241;BME280;11789;53.482;9.862;2023-02-04T08:23:55;103755.44;;;6.26;79.47
23241;BME280;11789;53.482;9.862;2023-02-04T08:26:21;103759.75;;;7.24;72.78
23241;BME280;11789;53.482;9.862;2023-02-04T08:28:46;103758.59;;;6.21;74.35
23241;BME280;11789;53.482;9.862;2023-02-04T08:31:11;103759.19;;;5.39;77.93
23241;BME280;11789;53.482;9.862;2023-02-04T08:33:37;103761.53;;;6.28;77.66
23241;BME280;11789;53.482;9.862;2023-02-04T08:36:06;103757.94;;;7.08;72.13
23241;BME280;11789;53.482;9.862;2023-02-04T08:38:32;103762.06;;;6.09;74.54
23241;BME280;11789;53.482;9.862;2023-02-04T08:40:57;103760.62;;;5.47;78.08
23241;BME280;11789;53.482;9.862;2023-02-04T08:43:25;103761.41;;;6.53;76.88
23241;BME280;11789;53.482;9.862;2023-02-04T08:45:50;103764.72;;;7.95;71.23
23241;BME280;11789;53.482;9.862;2023-02-04T08:48:16;103764.03;;;7.83;69.30
23241;BME280;11789;53.482;9.862;2023-02-04T08:50:41;103767.91;;;6.61;73.12
23241;BME280;11789;53.482;9.862;2023-02-04T08:53:07;103775.13;;;6.53;76.00
23241;BME280;11789;53.482;9.862;2023-02-04T08:55:32;103767.56;;;9.27;67.06
23241;BME280;11789;53.482;9.862;2023-02-04T08:57:57;103759.59;;;13.22;53.97
23241;BME280;11789;53.482;9.862;2023-02-04T09:00:24;103750.66;;;16.15;45.37
23241;BME280;11789;53.482;9.862;2023-02-04T09:02:49;103762.19;;;15.19;44.81
23241;BME280;11789;53.482;9.862;2023-02-04T09:05:15;103762.03;;;14.51;45.73
23241;BME280;11789;53.482;9.862;2023-02-04T09:07:40;103766.03;;;15.33;43.32
23241;BME280;11789;53.482;9.862;2023-02-04T09:10:06;103763.03;;;15.86;41.41
23241;BME280;11789;53.482;9.862;2023-02-04T09:12:32;103770.44;;;16.85;38.99
23241;BME280;11789;53.482;9.862;2023-02-04T09:14:57;103769.78;;;17.44;36.58
23241;BME280;11789;53.482;9.862;2023-02-04T09:17:23;103776.34;;;17.20;36.58
23241;BME280;11789;53.482;9.862;2023-02-04T09:19:48;103777.22;;;15.97;37.41
23241;BME280;11789;53.482;9.862;2023-02-04T09:22:14;103768.28;;;15.19;39.68
23241;BME280;11789;53.482;9.862;2023-02-04T09:24:40;103770.12;;;14.60;40.59
23241;BME280;11789;53.482;9.862;2023-02-04T09:27:05;103776.81;;;14.82;40.79
23241;BME280;11789;53.482;9.862;2023-02-04T09:29:31;103783.28;;;16.73;36.90
23241;BME280;11789;53.482;9.862;2023-02-04T09:31:57;103790.13;;;17.61;34.82
23241;BME280;11789;53.482;9.862;2023-02-04T09:34:22;103802.97;;;17.48;34.16
23241;BME280;11789;53.482;9.862;2023-02-04T09:36:48;103797.78;;;15.85;36.48
23241;BME280;11789;53.482;9.862;2023-02-04T09:39:14;103798.38;;;14.76;38.49
23241;BME280;11789;53.482;9.862;2023-02-04T09:41:40;103801.97;;;15.12;37.79
23241;BME280;11789;53.482;9.862;2023-02-04T09:44:13;103797.75;;;15.50;37.41
23241;BME280;11789;53.482;9.862;2023-02-04T09:46:46;103798.91;;;14.38;38.62
23241;BME280;11789;53.482;9.862;2023-02-04T09:49:12;103817.09;;;11.76;42.84
23241;BME280;11789;53.482;9.862;2023-02-04T09:51:38;103824.47;;;9.97;48.28
23241;BME280;11789;53.482;9.862;2023-02-04T09:54:12;103817.50;;;8.78;51.57
23241;BME280;11789;53.482;9.862;2023-02-04T09:56:38;103828.50;;;7.84;55.14
23241;BME280;11789;53.482;9.862;2023-02-04T09:59:22;103833.44;;;7.09;59.21
23241;BME280;11789;53.482;9.862;2023-02-04T10:01:58;103849.16;;;6.59;61.34
23241;BME280;11789;53.482;9.862;2023-02-04T10:04:24;103848.22;;;6.04;63.32
23241;BME280;11789;53.482;9.862;2023-02-04T10:06:50;103841.69;;;5.70;65.08
23241;BME280;11789;53.482;9.862;2023-02-04T10:09:16;103837.44;;;5.71;67.28
23241;BME280;11789;53.482;9.862;2023-02-04T10:11:44;103853.25;;;5.52;67.23
23241;BME280;11789;53.482;9.862;2023-02-04T10:14:14;103849.25;;;5.56;68.39
23241;BME280;11789;53.482;9.862;2023-02-04T10:16:42;103847.25;;;5.52;68.82
23241;BME280;11789;53.482;9.862;2023-02-04T10:19:13;103857.88;;;5.44;70.12
23241;BME280;11789;53.482;9.862;2023-02-04T10:21:41;103861.50;;;5.35;70.63
23241;BME280;11789;53.482;9.862;2023-02-04T10:24:15;103863.84;;;5.32;71.00
23241;BME280;11789;53.482;9.862;2023-02-04T10:26:41;103865.53;;;5.31;71.35
23241;BME280;11789;53.482;9.862;2023-02-04T10:29:13;103870.03;;;5.22;70.88
23241;BME280;11789;53.482;9.862;2023-02-04T10:31:41;103875.38;;;5.25;71.32
23241;BME280;11789;53.482;9.862;2023-02-04T10:36:53;103869.78;;;4.94;71.70
23241;BME280;11789;53.482;9.862;2023-02-04T10:39:21;103871.03;;;4.76;71.08
23241;BME280;11789;53.482;9.862;2023-02-04T10:41:49;103873.06;;;4.68;72.68
23241;BME280;11789;53.482;9.862;2023-02-04T10:44:18;103865.25;;;4.55;72.74
23241;BME280;11789;53.482;9.862;2023-02-04T10:46:44;103874.84;;;4.69;73.76
23241;BME280;11789;53.482;9.862;2023-02-04T10:49:23;103875.25;;;4.75;73.71
23241;BME280;11789;53.482;9.862;2023-02-04T10:51:50;103873.03;;;4.80;73.27
23241;BME280;11789;53.482;9.862;2023-02-04T10:54:18;103875.25;;;4.75;72.93
23241;BME280;11789;53.482;9.862;2023-02-04T10:57:16;103881.94;;;4.85;73.02
23241;BME280;11789;53.482;9.862;2023-02-04T10:59:43;103891.97;;;4.93;73.79
23241;BME280;11789;53.482;9.862;2023-02-04T11:05:18;103895.75;;;4.75;73.05
23241;BME280;11789;53.482;9.862;2023-02-04T11:07:45;103893.56;;;4.68;72.99
23241;BME280;11789;53.482;9.862;2023-02-04T11:10:17;103889.84;;;4.76;73.85
23241;BME280;11789;53.482;9.862;2023-02-04T11:18:06;103885.06;;;4.92;73.12
23241;BME280;11789;53.482;9.862;2023-02-04T11:20:32;103887.00;;;4.72;72.46
23241;BME280;11789;53.482;9.862;2023-02-04T11:33:47;103890.87;;;4.55;71.47
23241;BME280;11789;53.482;9.862;2023-02-04T11:36:15;103894.00;;;4.51;71.98
23241;BME280;11789;53.482;9.862;2023-02-04T11:38:48;103892.66;;;4.56;72.26
23241;BME280;11789;53.482;9.862;2023-02-04T11:41:26;103897.22;;;4.60;72.65
23241;BME280;11789;53.482;9.862;2023-02-04T11:43:54;103896.00;;;4.55;72.66
23241;BME280;11789;53.482;9.862;2023-02-04T11:46:20;103893.56;;;4.56;72.49
23241;BME280;11789;53.482;9.862;2023-02-04T11:48:51;103890.87;;;4.55;72.14
23241;BME280;11789;53.482;9.862;2023-02-04T11:51:21;103894.22;;;4.54;71.62
23241;BME280;11789;53.482;9.862;2023-02-04T11:53:51;103893.34;;;4.53;72.01
23241;BME280;11789;53.482;9.862;2023-02-04T11:56:21;103896.88;;;4.55;72.25
23241;BME280;11789;53.482;9.862;2023-02-04T11:58:48;103894.47;;;4.57;71.85
23241;BME280;11789;53.482;9.862;2023-02-04T12:01:20;103891.44;;;4.62;71.53
23241;BME280;11789;53.482;9.862;2023-02-04T12:03:50;103890.22;;;4.57;71.46
23241;BME280;11789;53.482;9.862;2023-02-04T12:06:29;103893.69;;;4.46;70.86
23241;BME280;11789;53.482;9.862;2023-02-04T12:11:30;103900.03;;;4.63;70.96
23241;BME280;11789;53.482;9.862;2023-02-04T12:13:58;103906.69;;;4.73;70.94
23241;BME280;11789;53.482;9.862;2023-02-04T12:16:24;103903.12;;;4.82;70.24
23241;BME280;11789;53.482;9.862;2023-02-04T12:18:50;103910.03;;;4.83;70.88
23241;BME280;11789;53.482;9.862;2023-02-04T12:21:16;103910.69;;;4.81;71.18
23241;BME280;11789;53.482;9.862;2023-02-04T12:23:43;103916.50;;;4.78;71.33
23241;BME280;11789;53.482;9.862;2023-02-04T12:26:09;103919.38;;;4.71;70.50
23241;BME280;11789;53.482;9.862;2023-02-04T12:28:35;103919.72;;;4.64;69.92
23241;BME280;11789;53.482;9.862;2023-02-04T12:31:00;103909.91;;;4.70;70.78
23241;BME280;11789;53.482;9.862;2023-02-04T12:33:26;103909.12;;;4.71;71.16
23241;BME280;11789;53.482;9.862;2023-02-04T12:35:52;103905.47;;;4.79;70.59
23241;BME280;11789;53.482;9.862;2023-02-04T12:38:18;103906.69;;;4.84;69.58
23241;BME280;11789;53.482;9.862;2023-02-04T12:40:44;103915.63;;;4.78;69.00
23241;BME280;11789;53.482;9.862;2023-02-04T12:43:09;103914.25;;;4.71;69.02
23241;BME280;11789;53.482;9.862;2023-02-04T12:45:35;103914.16;;;4.58;68.21
23241;BME280;11789;53.482;9.862;2023-02-04T12:48:02;103919.16;;;4.45;68.47
23241;BME280;11789;53.482;9.862;2023-02-04T12:50:27;103920.94;;;4.46;69.63
23241;BME280;11789;53.482;9.862;2023-02-04T12:52:55;103922.75;;;4.47;69.53
23241;BME280;11789;53.482;9.862;2023-02-04T12:55:22;103923.31;;;4.42;69.26
23241;BME280;11789;53.482;9.862;2023-02-04T12:57:48;103921.63;;;4.43;69.51
23241;BME280;11789;53.482;9.862;2023-02-04T13:00:16;103918.28;;;4.44;70.84
23241;BME280;11789;53.482;9.862;2023-02-04T13:02:42;103915.97;;;4.47;70.85
23241;BME280;11789;53.482;9.862;2023-02-04T13:05:08;103914.28;;;4.48;70.63
23241;BME280;11789;53.482;9.862;2023-02-04T13:07:33;103911.72;;;4.48;70.39
23241;BME280;11789;53.482;9.862;2023-02-04T13:09:59;103926.31;;;4.49;70.69
23241;BME280;11789;53.482;9.862;2023-02-04T13:12:25;103924.09;;;4.41;69.90
23241;BME280;11789;53.482;9.862;2023-02-04T13:14:51;103928.09;;;4.38;69.45
23241;BME280;11789;53.482;9.862;2023-02-04T13:17:17;103933.84;;;4.35;68.94